Terminal Aerodrome Forecast
Issued by NWS Jackson, MS

Home | Current Version | Previous Version | Text Only | Print | Product List | Glossary On
Versions: 1 2 3 4 5 6 7 8 9 10 11 12 13 14
077
FTUS44 KMEG 261120
TAFTUP
TAF
KTUP 261120Z 2612/2712 VRB03KT P6SM SCT050
     FM261600 11005KT P6SM SCT050 SCT250
     FM270000 VRB03KT P6SM FEW250=

USA.gov is the U.S. government's official web portal to all federal, state and local government web resources and services.